Bartahatchie, Mississippi
Current Conditions -  °F | °C
As of 6:58 PM on Saturday 25 Oct 2014 (Local Time) from KCBM Reporting Station
Clear Clear  
Wind Chill: 66°   Ceiling: Unl
Heat Index: 66°   Visibility: 7mi
Dew Point: 62°   Wind: 0mph
Humidity: 85%   Direction: NA
Pressure: 30.05"   Gusts: NA
Location:  33.6943°N, 88.3042°W
Report Text: KCBM 252358Z AUTO 00000KT 7SM CLR 19/17 A3005 RMK AO2 SLP179 T01910165 10269 20191 53002 $
Loading
Personal Weather Stations






























Interactive Weather Map
Tropical Storm Tracking
New forecast layout! Learn more

10-Day Weather Forecast

Advertisements
Track Severe Weather on mobile